createdAt,value
2022-12-18T00:02:13.959Z,30.80
2022-12-18T00:04:40.488Z,30.15
2022-12-18T00:07:07.027Z,31.67
2022-12-18T00:09:39.785Z,29.90
2022-12-18T00:14:42.885Z,31.35
2022-12-18T00:17:09.360Z,32.72
2022-12-18T00:19:35.999Z,30.77
2022-12-18T00:22:02.424Z,27.63
2022-12-18T00:24:28.851Z,29.05
2022-12-18T00:26:55.271Z,30.70
2022-12-18T00:29:21.716Z,30.17
2022-12-18T00:31:48.228Z,28.05
2022-12-18T00:34:15.098Z,29.77
2022-12-18T00:36:42.418Z,29.98
2022-12-18T00:39:11.327Z,29.55
2022-12-18T00:41:56.309Z,29.95
2022-12-18T00:44:22.804Z,30.27
2022-12-18T00:46:49.329Z,25.13
2022-12-18T00:49:18.716Z,28.80
2022-12-18T00:51:46.215Z,28.67
2022-12-18T00:54:12.721Z,26.40
2022-12-18T00:56:48.251Z,28.75
2022-12-18T00:59:15.991Z,27.67
2022-12-18T01:01:42.605Z,29.83
2022-12-18T01:04:09.289Z,30.02
2022-12-18T01:06:36.154Z,29.15
2022-12-18T01:09:03.163Z,31.13
2022-12-18T01:11:29.707Z,29.77
2022-12-18T01:13:56.376Z,26.83
2022-12-18T01:16:23.735Z,31.13
2022-12-18T01:18:53.633Z,29.98
2022-12-18T01:21:20.494Z,30.63
2022-12-18T01:23:47.552Z,27.47
2022-12-18T01:26:16.475Z,27.63
2022-12-18T01:28:44.748Z,29.70
2022-12-18T01:31:15.727Z,29.05
2022-12-18T01:33:42.337Z,30.58
2022-12-18T01:36:09.919Z,28.00
2022-12-18T01:38:36.351Z,28.80
2022-12-18T01:41:03.087Z,27.90
2022-12-18T01:44:01.771Z,28.45
2022-12-18T01:46:28.797Z,28.77
2022-12-18T01:48:58.790Z,28.10
2022-12-18T01:51:27.413Z,27.15
2022-12-18T01:53:53.884Z,29.98
2022-12-18T01:56:22.035Z,30.17
2022-12-18T01:58:54.573Z,29.60
2022-12-18T02:01:24.654Z,27.10
2022-12-18T02:03:52.329Z,27.27
2022-12-18T02:06:33.800Z,28.50
2022-12-18T02:09:10.810Z,27.00
2022-12-18T02:12:11.596Z,26.25
2022-12-18T02:14:59.728Z,27.73
2022-12-18T02:17:40.844Z,26.63
2022-12-18T02:20:30.781Z,31.10
2022-12-18T02:23:20.968Z,27.17
2022-12-18T02:26:12.464Z,27.75
2022-12-18T02:28:54.079Z,27.30
2022-12-18T02:31:27.447Z,27.38
2022-12-18T02:33:57.467Z,28.52
2022-12-18T02:36:26.488Z,26.88
2022-12-18T02:38:54.628Z,28.45
2022-12-18T02:41:22.729Z,30.87
2022-12-18T02:43:50.427Z,27.60
2022-12-18T02:46:37.936Z,29.38
2022-12-18T02:49:25.477Z,26.08
2022-12-18T02:52:01.913Z,27.60
2022-12-18T02:54:46.413Z,27.53
2022-12-18T02:57:36.129Z,27.80
2022-12-18T03:00:11.384Z,27.52
2022-12-18T03:03:08.914Z,27.95
2022-12-18T03:05:41.224Z,24.80
2022-12-18T03:08:14.058Z,27.70
2022-12-18T03:10:46.768Z,26.60
2022-12-18T03:13:20.064Z,29.95
2022-12-18T03:15:54.031Z,26.92
2022-12-18T03:18:46.832Z,27.40
2022-12-18T03:21:17.083Z,25.40
2022-12-18T03:23:50.816Z,24.20
2022-12-18T03:26:25.695Z,24.20
2022-12-18T03:29:00.690Z,24.73
2022-12-18T03:31:31.817Z,25.10
2022-12-18T03:34:06.591Z,25.33
2022-12-18T03:36:33.131Z,24.00
2022-12-18T03:38:59.768Z,25.52
2022-12-18T03:41:54.703Z,22.65
2022-12-18T03:44:37.697Z,25.02
2022-12-18T03:47:21.611Z,22.33
2022-12-18T03:50:09.585Z,23.00
2022-12-18T03:52:41.822Z,23.42
2022-12-18T03:55:10.124Z,24.13
2022-12-18T03:57:37.935Z,22.95
2022-12-18T04:00:16.361Z,22.00
2022-12-18T04:02:48.946Z,23.05
2022-12-18T04:05:16.744Z,24.10
2022-12-18T04:07:44.876Z,22.58
2022-12-18T04:10:13.245Z,22.80
2022-12-18T04:12:39.692Z,21.50
2022-12-18T04:15:07.399Z,20.70
2022-12-18T04:17:33.809Z,23.58
2022-12-18T04:20:00.260Z,21.85
2022-12-18T04:22:26.683Z,23.52
2022-12-18T04:24:53.136Z,23.20
2022-12-18T04:27:19.758Z,22.90
2022-12-18T04:29:46.196Z,23.30
2022-12-18T04:32:12.620Z,21.13
2022-12-18T04:34:39.104Z,22.42
2022-12-18T04:37:05.527Z,23.17
2022-12-18T04:39:32.038Z,21.88
2022-12-18T04:41:58.464Z,21.27
2022-12-18T04:44:24.931Z,23.13
2022-12-18T04:46:51.412Z,20.92
2022-12-18T04:49:17.897Z,21.90
2022-12-18T04:51:44.340Z,21.02
2022-12-18T04:54:10.758Z,23.95
2022-12-18T04:56:37.232Z,23.63
2022-12-18T04:59:03.643Z,21.92
2022-12-18T05:01:34.536Z,22.20
2022-12-18T05:04:02.616Z,20.65
2022-12-18T05:06:29.136Z,21.27
2022-12-18T05:08:55.928Z,21.42
2022-12-18T05:11:22.600Z,20.55
2022-12-18T05:13:49.111Z,19.80
2022-12-18T05:16:15.779Z,21.42
2022-12-18T05:18:42.978Z,22.73
2022-12-18T05:21:09.719Z,21.63
2022-12-18T05:23:37.011Z,21.23
2022-12-18T05:26:06.071Z,21.07
2022-12-18T05:28:34.833Z,21.35
2022-12-18T05:31:03.255Z,21.90
2022-12-18T05:33:32.721Z,20.25
2022-12-18T05:36:04.248Z,21.50
2022-12-18T05:38:32.313Z,19.57
2022-12-18T05:40:59.203Z,22.70
2022-12-18T05:43:27.222Z,20.67
2022-12-18T05:45:55.201Z,18.35
2022-12-18T05:48:22.312Z,21.52
2022-12-18T05:50:51.168Z,20.50
2022-12-18T05:53:19.187Z,20.20
2022-12-18T05:55:46.383Z,20.90
2022-12-18T05:58:14.359Z,19.27
2022-12-18T06:00:45.905Z,20.58
2022-12-18T06:03:13.548Z,20.53
2022-12-18T06:05:42.763Z,20.52
2022-12-18T06:08:09.754Z,20.20
2022-12-18T06:10:36.423Z,19.48
2022-12-18T06:13:02.920Z,17.92
2022-12-18T06:15:29.323Z,20.47
2022-12-18T06:17:55.776Z,16.33
2022-12-18T06:20:22.435Z,21.17
2022-12-18T06:22:49.187Z,21.13
2022-12-18T06:25:16.312Z,19.90
2022-12-18T06:27:43.023Z,19.63
2022-12-18T06:30:10.933Z,19.20
2022-12-18T06:32:37.424Z,18.67
2022-12-18T06:35:04.795Z,19.17
2022-12-18T06:37:32.505Z,18.55
2022-12-18T06:39:58.999Z,20.33
2022-12-18T06:42:25.810Z,18.58
2022-12-18T06:44:52.308Z,20.42
2022-12-18T06:47:19.391Z,18.98
2022-12-18T06:49:45.842Z,19.98
2022-12-18T06:52:12.282Z,19.03
2022-12-18T06:54:38.784Z,17.80
2022-12-18T06:57:05.236Z,19.85
2022-12-18T06:59:31.688Z,19.15
2022-12-18T07:01:58.310Z,19.38
2022-12-18T07:04:32.647Z,19.33
2022-12-18T07:06:59.062Z,18.70
2022-12-18T07:09:25.699Z,19.90
2022-12-18T07:11:53.283Z,20.02
2022-12-18T07:14:19.791Z,22.13
2022-12-18T07:16:46.350Z,18.60
2022-12-18T07:19:12.915Z,19.40
2022-12-18T07:21:39.569Z,19.88
2022-12-18T07:24:06.724Z,18.15
2022-12-18T07:26:33.205Z,20.00
2022-12-18T07:28:59.817Z,17.20
2022-12-18T07:31:27.434Z,19.00
2022-12-18T07:33:54.547Z,18.05
2022-12-18T07:36:23.833Z,18.70
2022-12-18T07:38:51.182Z,19.77
2022-12-18T07:41:18.121Z,17.13
2022-12-18T07:43:44.901Z,18.10
2022-12-18T07:46:14.678Z,20.75
2022-12-18T07:48:42.875Z,18.17
2022-12-18T07:51:11.171Z,20.35
2022-12-18T07:53:38.074Z,18.43
2022-12-18T07:58:54.394Z,19.83
2022-12-18T08:01:21.365Z,18.48
2022-12-18T08:03:48.108Z,17.90
2022-12-18T08:06:14.992Z,17.77
2022-12-18T08:08:43.170Z,18.58
2022-12-18T08:11:10.678Z,20.48
2022-12-18T08:13:37.388Z,19.13
2022-12-18T08:16:07.126Z,19.95
2022-12-18T08:18:35.229Z,20.60
2022-12-18T08:21:16.942Z,19.67
2022-12-18T08:23:44.180Z,17.80
2022-12-18T08:26:12.428Z,20.67
2022-12-18T08:28:39.660Z,21.08
2022-12-18T08:31:06.735Z,24.07
2022-12-18T08:33:34.526Z,23.73
2022-12-18T08:36:01.351Z,19.92
2022-12-18T08:38:28.255Z,20.70
2022-12-18T08:41:02.628Z,19.17
2022-12-18T08:43:47.775Z,19.70
2022-12-18T08:46:14.336Z,20.33
2022-12-18T08:48:40.877Z,20.30
2022-12-18T08:51:07.672Z,20.55
2022-12-18T08:53:35.819Z,19.83
2022-12-18T08:56:02.856Z,21.83
2022-12-18T08:58:29.434Z,21.48
2022-12-18T09:01:01.034Z,21.08
2022-12-18T09:03:27.595Z,21.00
2022-12-18T09:05:54.051Z,20.98
2022-12-18T09:08:20.625Z,23.23
2022-12-18T09:10:49.588Z,21.20
2022-12-18T09:13:17.120Z,22.00
2022-12-18T09:15:46.309Z,19.63
2022-12-18T09:18:14.121Z,19.83
2022-12-18T09:20:40.936Z,28.30
2022-12-18T09:23:08.411Z,22.50
2022-12-18T09:25:36.756Z,21.05
2022-12-18T09:28:05.496Z,19.02
2022-12-18T09:30:34.263Z,18.45
2022-12-18T09:33:01.884Z,18.10
2022-12-18T09:35:28.858Z,17.30
2022-12-18T09:37:55.435Z,19.85
2022-12-18T09:40:26.097Z,18.42
2022-12-18T09:43:01.610Z,21.00
2022-12-18T09:45:31.404Z,19.67
2022-12-18T09:47:58.575Z,17.42
2022-12-18T09:50:33.663Z,19.23
2022-12-18T09:53:06.872Z,18.30
2022-12-18T09:55:41.283Z,17.83
2022-12-18T09:58:17.317Z,17.07
2022-12-18T10:00:44.152Z,16.95
2022-12-18T10:03:15.447Z,20.33
2022-12-18T10:06:01.414Z,16.40
2022-12-18T10:09:20.323Z,18.10
2022-12-18T10:11:46.724Z,15.23
2022-12-18T10:14:30.869Z,18.17
2022-12-18T10:17:18.460Z,18.83
2022-12-18T10:19:52.322Z,17.52
2022-12-18T10:22:36.777Z,18.10
2022-12-18T10:25:15.095Z,19.43
2022-12-18T10:27:41.831Z,17.45
2022-12-18T10:30:21.954Z,16.83
2022-12-18T10:32:48.395Z,16.85
2022-12-18T10:35:22.558Z,16.65
2022-12-18T10:38:00.620Z,17.77
2022-12-18T10:40:27.404Z,18.30
2022-12-18T10:43:15.459Z,19.05
2022-12-18T10:45:43.159Z,16.42
2022-12-18T10:48:21.943Z,18.35
2022-12-18T10:53:38.188Z,17.70
2022-12-18T10:56:07.166Z,17.88
2022-12-18T10:58:36.576Z,18.20
2022-12-18T11:01:07.652Z,17.98
2022-12-18T11:03:41.702Z,18.47
2022-12-18T11:06:22.703Z,18.50
2022-12-18T11:09:21.824Z,18.40
2022-12-18T11:11:54.477Z,16.70
2022-12-18T11:14:33.279Z,19.85
2022-12-18T11:19:55.205Z,19.98
2022-12-18T11:22:33.413Z,19.45
2022-12-18T11:25:30.856Z,17.05
2022-12-18T11:27:51.273Z,19.77
2022-12-18T11:30:20.688Z,18.60
2022-12-18T11:32:51.993Z,17.60
2022-12-18T11:35:23.017Z,21.20
2022-12-18T11:38:00.143Z,16.75
2022-12-18T11:40:40.834Z,17.63
2022-12-18T11:43:39.056Z,24.17
2022-12-18T11:46:17.629Z,17.20
2022-12-18T11:49:29.194Z,18.90
2022-12-18T11:51:55.619Z,17.20
2022-12-18T11:54:22.129Z,18.02
2022-12-18T11:57:10.292Z,17.10
2022-12-18T12:00:15.951Z,16.58
2022-12-18T12:03:02.130Z,18.50
2022-12-18T12:05:51.020Z,18.55
2022-12-18T12:08:28.132Z,17.92
2022-12-18T12:11:11.264Z,17.73
2022-12-18T12:14:14.668Z,17.67
2022-12-18T12:16:47.121Z,17.52
2022-12-18T12:19:25.471Z,16.80
2022-12-18T12:22:16.243Z,16.15
2022-12-18T12:25:20.480Z,17.37
2022-12-18T12:27:54.434Z,16.70
2022-12-18T12:30:26.650Z,17.92
2022-12-18T12:33:05.787Z,17.27
2022-12-18T12:35:58.268Z,18.67
2022-12-18T12:38:35.031Z,16.03
2022-12-18T12:41:06.293Z,17.17
2022-12-18T12:46:41.605Z,16.67
2022-12-18T12:49:16.523Z,17.75
2022-12-18T12:51:48.687Z,15.63
2022-12-18T12:54:22.334Z,16.77
2022-12-18T12:57:20.999Z,19.15
2022-12-18T13:00:06.175Z,17.17
2022-12-18T13:02:51.968Z,17.38
2022-12-18T13:05:26.961Z,17.27
2022-12-18T13:08:10.340Z,18.23
2022-12-18T13:10:38.958Z,18.75
2022-12-18T13:13:09.182Z,15.73
2022-12-18T13:13:43.289Z,18.35
2022-12-18T13:15:46.778Z,17.50
2022-12-18T13:18:19.679Z,17.43
2022-12-18T13:20:53.155Z,15.65
2022-12-18T13:23:24.689Z,18.40
2022-12-18T13:25:55.881Z,15.48
2022-12-18T13:28:34.549Z,16.67
2022-12-18T13:31:02.559Z,17.30
2022-12-18T13:34:01.967Z,17.27
2022-12-18T13:36:34.527Z,18.73
2022-12-18T13:39:34.101Z,23.48
2022-12-18T13:42:07.227Z,16.48
2022-12-18T13:44:41.613Z,17.23
2022-12-18T13:47:29.373Z,30.92
2022-12-18T13:49:56.075Z,18.40
2022-12-18T13:52:26.330Z,20.10
2022-12-18T13:54:56.138Z,19.77
2022-12-18T13:57:41.672Z,28.87
2022-12-18T14:00:23.431Z,18.08
2022-12-18T14:02:51.343Z,28.08
2022-12-18T14:05:35.189Z,27.60
2022-12-18T14:08:06.905Z,21.48
2022-12-18T14:10:47.921Z,24.90
2022-12-18T14:13:41.292Z,18.50
2022-12-18T14:16:09.046Z,27.98
2022-12-18T14:19:04.116Z,21.17
2022-12-18T14:21:47.360Z,20.25
2022-12-18T14:24:22.516Z,18.23
2022-12-18T14:26:50.778Z,17.27
2022-12-18T14:29:29.165Z,19.70
2022-12-18T14:32:18.681Z,15.05
2022-12-18T14:34:50.904Z,18.00
2022-12-18T14:37:22.657Z,16.33
2022-12-18T14:39:57.932Z,17.30
2022-12-18T14:42:28.870Z,18.48
2022-12-18T14:45:37.434Z,15.95
2022-12-18T14:48:09.829Z,18.55
2022-12-18T14:50:37.996Z,18.07
2022-12-18T14:53:09.022Z,17.65
2022-12-18T14:55:35.635Z,18.83
2022-12-18T14:58:02.791Z,16.33
2022-12-18T15:00:29.280Z,18.30
2022-12-18T15:02:57.921Z,18.03
2022-12-18T15:05:30.565Z,18.65
2022-12-18T15:08:00.104Z,20.60
2022-12-18T15:10:32.565Z,19.75
2022-12-18T15:13:00.809Z,21.10
2022-12-18T15:15:40.229Z,18.77
2022-12-18T15:18:09.641Z,18.60
2022-12-18T15:20:45.043Z,19.50
2022-12-18T15:23:21.730Z,17.77
2022-12-18T15:25:55.226Z,18.33
2022-12-18T15:28:39.063Z,18.53
2022-12-18T15:31:09.866Z,18.08
2022-12-18T15:33:39.983Z,19.67
2022-12-18T15:36:12.475Z,17.63
2022-12-18T15:38:38.960Z,20.13
2022-12-18T15:41:24.863Z,18.70
2022-12-18T15:43:53.220Z,19.00
2022-12-18T15:46:22.813Z,18.75
2022-12-18T15:48:53.555Z,19.25
2022-12-18T15:51:23.094Z,19.45
2022-12-18T15:53:52.648Z,19.93
2022-12-18T15:56:37.848Z,18.17
2022-12-18T15:59:13.500Z,19.05
2022-12-18T16:01:42.827Z,21.00
2022-12-18T16:04:13.099Z,19.33
2022-12-18T16:06:58.069Z,17.93
2022-12-18T16:09:26.386Z,17.45
2022-12-18T16:11:53.365Z,18.27
2022-12-18T16:14:28.992Z,19.10
2022-12-18T16:16:58.064Z,18.42
2022-12-18T16:19:25.330Z,17.80
2022-12-18T16:21:54.016Z,17.55
2022-12-18T16:24:26.091Z,19.48
2022-12-18T16:26:54.113Z,18.42
2022-12-18T16:29:28.018Z,19.08
2022-12-18T16:31:59.078Z,18.50
2022-12-18T16:34:32.874Z,17.83
2022-12-18T16:37:05.884Z,20.25
2022-12-18T16:39:35.018Z,18.58
2022-12-18T16:42:09.654Z,20.10
2022-12-18T16:44:36.450Z,18.83
2022-12-18T16:47:04.303Z,21.15
2022-12-18T16:49:31.594Z,20.52
2022-12-18T16:51:58.144Z,19.58
2022-12-18T16:54:25.133Z,19.40
2022-12-18T16:56:52.313Z,18.03
2022-12-18T16:59:19.859Z,19.00
2022-12-18T17:01:46.871Z,22.58
2022-12-18T17:04:13.564Z,20.63
2022-12-18T17:06:43.084Z,20.20
2022-12-18T17:09:14.964Z,20.50
2022-12-18T17:11:41.880Z,21.48
2022-12-18T17:14:10.761Z,22.38
2022-12-18T17:16:37.252Z,20.83
2022-12-18T17:19:05.144Z,22.80
2022-12-18T17:21:31.788Z,20.30
2022-12-18T17:24:01.320Z,20.90
2022-12-18T17:26:28.155Z,23.40
2022-12-18T17:28:57.699Z,22.38
2022-12-18T17:31:26.202Z,22.33
2022-12-18T17:33:53.570Z,20.70
2022-12-18T17:36:21.320Z,21.48
2022-12-18T17:38:57.141Z,23.23
2022-12-18T17:41:24.882Z,21.23
2022-12-18T17:43:56.351Z,22.48
2022-12-18T17:46:23.397Z,19.67
2022-12-18T17:48:50.086Z,21.65
2022-12-18T17:51:17.935Z,22.88
2022-12-18T17:53:44.827Z,20.73
2022-12-18T17:56:17.166Z,20.90
2022-12-18T17:58:44.187Z,21.97
2022-12-18T18:01:13.827Z,22.60
2022-12-18T18:03:42.876Z,24.38
2022-12-18T18:06:09.913Z,19.67
2022-12-18T18:08:37.549Z,21.92
2022-12-18T18:11:28.226Z,21.93
2022-12-18T18:14:00.801Z,22.30
2022-12-18T18:16:35.097Z,23.38
2022-12-18T18:19:07.357Z,24.05
2022-12-18T18:21:35.087Z,22.30
2022-12-18T18:24:03.116Z,21.37
2022-12-18T18:26:31.866Z,22.42
2022-12-18T18:29:00.063Z,21.75
2022-12-18T18:31:30.809Z,21.15
2022-12-18T18:33:57.941Z,22.17
2022-12-18T18:36:24.610Z,24.37
2022-12-18T18:38:52.000Z,44.50
2022-12-18T18:41:18.928Z,46.10
2022-12-18T18:43:45.454Z,27.40
2022-12-18T18:46:14.066Z,32.40
2022-12-18T18:48:42.999Z,23.10
2022-12-18T18:51:21.174Z,25.35
2022-12-18T18:53:49.955Z,22.95
2022-12-18T18:59:05.234Z,24.15
2022-12-18T19:01:31.938Z,21.40
2022-12-18T19:03:58.682Z,20.48
2022-12-18T19:06:27.735Z,20.42
2022-12-18T19:08:55.643Z,22.05
2022-12-18T19:11:42.401Z,21.50
2022-12-18T19:14:11.721Z,19.50
2022-12-18T19:16:38.911Z,19.20
2022-12-18T19:19:05.715Z,22.05
2022-12-18T19:21:34.603Z,21.58
2022-12-18T19:24:02.454Z,21.65
2022-12-18T19:26:29.237Z,21.70
2022-12-18T19:29:04.521Z,20.70
2022-12-18T19:31:35.517Z,21.90
2022-12-18T19:34:03.785Z,21.27
2022-12-18T19:36:31.233Z,22.55
2022-12-18T19:38:59.899Z,22.13
2022-12-18T19:41:29.048Z,20.08
2022-12-18T19:43:55.824Z,22.20
2022-12-18T19:46:23.306Z,20.05
2022-12-18T19:48:50.555Z,21.38
2022-12-18T19:51:18.343Z,20.90
2022-12-18T19:53:45.401Z,18.45
2022-12-18T19:56:15.057Z,21.55
2022-12-18T19:58:42.255Z,19.48
2022-12-18T20:01:10.277Z,22.65
2022-12-18T20:03:38.943Z,21.53
2022-12-18T20:06:12.794Z,22.13
2022-12-18T20:08:40.040Z,22.35
2022-12-18T20:11:07.266Z,23.00
2022-12-18T20:13:34.552Z,22.50
2022-12-18T20:16:01.232Z,22.10
2022-12-18T20:18:27.914Z,23.10
2022-12-18T20:20:55.196Z,23.85
2022-12-18T20:23:24.504Z,23.10
2022-12-18T20:25:54.600Z,24.75
2022-12-18T20:28:22.542Z,22.50
2022-12-18T20:30:49.125Z,22.08
2022-12-18T20:33:16.221Z,22.98
2022-12-18T20:35:43.376Z,23.73
2022-12-18T20:38:10.427Z,24.92
2022-12-18T20:40:41.412Z,24.17
2022-12-18T20:43:11.301Z,23.15
2022-12-18T20:45:41.335Z,23.88
2022-12-18T20:48:09.556Z,23.77
2022-12-18T20:50:36.353Z,25.95
2022-12-18T20:53:02.860Z,23.87
2022-12-18T20:55:29.375Z,24.13
2022-12-18T20:57:55.959Z,25.27
2022-12-18T21:00:22.693Z,24.35
2022-12-18T21:02:49.303Z,24.15
2022-12-18T21:05:15.900Z,23.57
2022-12-18T21:07:42.322Z,22.75
2022-12-18T21:10:09.300Z,27.17
2022-12-18T21:12:42.833Z,23.90
2022-12-18T21:15:28.589Z,26.05
2022-12-18T21:17:55.458Z,23.03
2022-12-18T21:20:21.893Z,22.80
2022-12-18T21:22:49.397Z,24.48
2022-12-18T21:25:15.963Z,25.08
2022-12-18T21:27:42.389Z,23.90
2022-12-18T21:30:09.417Z,22.17
2022-12-18T21:32:35.863Z,23.95
2022-12-18T21:35:02.376Z,22.98
2022-12-18T21:37:28.837Z,24.00
2022-12-18T21:39:55.332Z,25.88
2022-12-18T21:42:48.056Z,25.03
2022-12-18T21:45:14.612Z,25.48
2022-12-18T21:47:41.058Z,24.83
2022-12-18T21:50:07.770Z,24.67
2022-12-18T21:52:34.214Z,24.58
2022-12-18T21:55:08.343Z,22.73
2022-12-18T21:57:35.571Z,24.52
2022-12-18T22:00:02.951Z,25.35
2022-12-18T22:02:29.698Z,23.73
2022-12-18T22:04:56.354Z,25.40
2022-12-18T22:07:22.996Z,23.40
2022-12-18T22:09:50.632Z,23.17
2022-12-18T22:12:35.167Z,28.23
2022-12-18T22:15:04.387Z,24.35
2022-12-18T22:17:30.957Z,26.58
2022-12-18T22:19:57.606Z,23.60
2022-12-18T22:22:24.271Z,23.83
2022-12-18T22:24:50.728Z,26.15
2022-12-18T22:27:17.149Z,24.95
2022-12-18T22:30:02.290Z,25.15
2022-12-18T22:32:30.769Z,24.70
2022-12-18T22:35:04.870Z,26.75
2022-12-18T22:37:32.804Z,25.95
2022-12-18T22:39:59.187Z,24.50
2022-12-18T22:42:29.437Z,26.52
2022-12-18T22:44:55.898Z,22.57
2022-12-18T22:47:25.395Z,24.25
2022-12-18T22:49:55.775Z,25.42
2022-12-18T22:52:22.209Z,25.88
2022-12-18T22:54:51.194Z,23.80
2022-12-18T22:57:20.315Z,22.93
2022-12-18T22:59:46.736Z,24.10
2022-12-18T23:02:13.366Z,25.55
2022-12-18T23:04:39.934Z,24.73
2022-12-18T23:07:06.505Z,24.95
2022-12-18T23:09:33.313Z,23.20
2022-12-18T23:12:00.677Z,24.65
2022-12-18T23:14:28.509Z,25.60
2022-12-18T23:16:55.152Z,23.85
2022-12-18T23:19:23.467Z,26.77
2022-12-18T23:21:50.650Z,26.77
2022-12-18T23:24:17.092Z,24.83
2022-12-18T23:26:43.643Z,26.70
2022-12-18T23:29:10.178Z,22.40
2022-12-18T23:31:38.870Z,24.83
2022-12-18T23:34:07.985Z,24.10
2022-12-18T23:36:45.827Z,24.45
2022-12-18T23:39:19.243Z,26.70
2022-12-18T23:41:57.717Z,25.27
2022-12-18T23:44:24.300Z,27.20
2022-12-18T23:46:50.890Z,24.57
2022-12-18T23:49:17.417Z,27.58
2022-12-18T23:51:43.863Z,27.48
2022-12-18T23:54:10.547Z,25.55
2022-12-18T23:56:36.989Z,27.27
2022-12-18T23:59:03.535Z,26.27
